createdAt,value
2023-01-03T00:00:13.668Z,8.33
2023-01-03T00:05:20.121Z,8.27
2023-01-03T00:10:23.863Z,6.83
2023-01-03T00:15:31.025Z,10.07
2023-01-03T00:20:36.921Z,9.60
2023-01-03T00:25:43.450Z,13.37
2023-01-03T00:30:47.333Z,10.33
2023-01-03T00:35:52.186Z,12.57
2023-01-03T00:40:55.889Z,12.93
2023-01-03T00:46:01.047Z,11.07
2023-01-03T00:51:12.529Z,7.30
2023-01-03T00:56:19.066Z,10.20
2023-01-03T01:01:28.552Z,8.40
2023-01-03T01:06:39.631Z,7.50
2023-01-03T01:11:45.493Z,10.50
2023-01-03T01:17:02.246Z,10.63
2023-01-03T01:22:06.198Z,8.03
2023-01-03T01:27:11.220Z,9.40
2023-01-03T01:32:15.795Z,7.10
2023-01-03T01:37:22.133Z,9.63
2023-01-03T01:42:44.674Z,7.03
2023-01-03T01:48:00.000Z,7.87
2023-01-03T01:53:36.488Z,8.40
2023-01-03T01:58:44.747Z,7.73
2023-01-03T02:04:17.349Z,7.93
2023-01-03T02:09:23.321Z,7.73
2023-01-03T02:14:44.309Z,10.03
2023-01-03T02:20:08.868Z,8.23
2023-01-03T02:25:38.896Z,13.73
2023-01-03T02:30:45.995Z,13.63
2023-01-03T02:36:19.814Z,11.47
2023-01-03T02:41:32.645Z,7.10
2023-01-03T02:46:59.535Z,9.57
2023-01-03T02:52:14.211Z,6.90
2023-01-03T02:57:25.701Z,8.63
2023-01-03T03:02:37.082Z,10.50
2023-01-03T03:07:42.170Z,14.73
2023-01-03T03:13:08.807Z,13.60
2023-01-03T03:18:27.303Z,17.03
2023-01-03T03:23:56.265Z,13.30
2023-01-03T03:29:10.864Z,8.83
2023-01-03T03:34:28.339Z,8.40
2023-01-03T03:39:54.391Z,11.73
2023-01-03T03:45:04.251Z,11.35
2023-01-03T03:50:18.625Z,11.67
2023-01-03T03:55:35.346Z,10.77
2023-01-03T04:05:58.393Z,10.43
2023-01-03T04:11:08.475Z,10.00
2023-01-03T04:16:12.401Z,8.80
2023-01-03T04:21:20.691Z,8.87
2023-01-03T04:26:26.451Z,9.93
2023-01-03T04:31:31.128Z,11.67
2023-01-03T04:36:35.984Z,7.57
2023-01-03T04:41:39.883Z,9.93
2023-01-03T04:46:49.020Z,12.13
2023-01-03T04:51:59.514Z,14.50
2023-01-03T04:57:05.454Z,12.40
2023-01-03T05:02:13.463Z,13.70
2023-01-03T05:07:17.697Z,12.43
2023-01-03T05:12:25.939Z,17.77
2023-01-03T05:17:31.365Z,12.67
2023-01-03T05:22:56.204Z,11.67
2023-01-03T05:28:04.305Z,16.63
2023-01-03T05:33:09.326Z,12.93
2023-01-03T05:38:15.087Z,9.90
2023-01-03T05:43:19.013Z,14.67
2023-01-03T05:48:23.593Z,12.33
2023-01-03T05:53:29.133Z,11.40
2023-01-03T05:58:35.059Z,24.00
2023-01-03T06:03:44.668Z,18.55
2023-01-03T06:08:54.405Z,15.77
2023-01-03T06:14:02.306Z,14.50
2023-01-03T06:19:09.805Z,14.07
2023-01-03T06:24:21.675Z,17.73
2023-01-03T06:29:25.945Z,10.93
2023-01-03T06:34:31.082Z,9.95
2023-01-03T06:39:38.802Z,11.63
2023-01-03T06:44:43.277Z,12.30
2023-01-03T06:50:12.313Z,15.00
2023-01-03T06:55:21.402Z,14.30
2023-01-03T07:00:27.539Z,13.32
2023-01-03T07:05:34.200Z,13.05
2023-01-03T07:10:42.210Z,15.93
2023-01-03T07:15:46.616Z,18.33
2023-01-03T07:20:50.736Z,16.67
2023-01-03T07:25:58.129Z,18.08
2023-01-03T07:31:08.841Z,14.63
2023-01-03T07:41:46.073Z,16.48
2023-01-03T07:46:52.601Z,15.85
2023-01-03T07:52:01.349Z,20.55
2023-01-03T07:57:06.073Z,13.82
2023-01-03T08:02:11.077Z,17.20
2023-01-03T08:07:18.822Z,14.52
2023-01-03T08:12:45.121Z,13.60
2023-01-03T08:17:51.812Z,16.02
2023-01-03T08:22:57.539Z,15.77
2023-01-03T08:28:02.327Z,17.02
2023-01-03T08:33:08.964Z,15.60
2023-01-03T08:38:18.746Z,15.63
2023-01-03T08:43:23.054Z,14.85
2023-01-03T08:48:27.274Z,17.13
2023-01-03T08:53:32.255Z,14.60
2023-01-03T08:58:36.623Z,17.33
2023-01-03T09:03:44.595Z,17.90
2023-01-03T09:08:48.707Z,17.38
2023-01-03T09:13:55.951Z,18.48
2023-01-03T09:19:03.344Z,19.85
2023-01-03T09:24:07.465Z,22.35
2023-01-03T09:29:15.961Z,19.92
2023-01-03T09:34:24.911Z,21.50
2023-01-03T09:39:29.946Z,22.92
2023-01-03T09:44:35.191Z,32.50
2023-01-03T09:49:57.661Z,27.95
2023-01-03T09:55:53.316Z,21.98
2023-01-03T10:01:41.634Z,23.35
2023-01-03T10:06:53.886Z,23.43
2023-01-03T10:12:20.956Z,26.40
2023-01-03T10:18:13.968Z,25.92
2023-01-03T10:23:22.135Z,28.90
2023-01-03T10:28:39.231Z,28.83
2023-01-03T10:33:47.080Z,34.10
2023-01-03T10:39:09.242Z,36.00
2023-01-03T10:44:30.093Z,35.25
2023-01-03T10:49:37.144Z,27.58
2023-01-03T10:54:53.322Z,33.88
2023-01-03T11:00:23.333Z,30.48
2023-01-03T11:05:30.232Z,30.87
2023-01-03T11:10:57.412Z,34.55
2023-01-03T11:16:05.096Z,31.50
2023-01-03T11:21:31.972Z,46.67
2023-01-03T11:26:46.485Z,36.10
2023-01-03T11:32:22.365Z,42.45
2023-01-03T11:37:42.144Z,44.25
2023-01-03T11:43:14.779Z,36.47
2023-01-03T11:48:31.509Z,37.08
2023-01-03T11:54:18.739Z,37.13
2023-01-03T11:59:42.934Z,37.55
2023-01-03T12:05:07.288Z,35.40
2023-01-03T12:10:50.661Z,37.97
2023-01-03T12:16:03.274Z,40.17
2023-01-03T12:21:38.352Z,31.95
2023-01-03T12:26:50.197Z,32.72
2023-01-03T12:32:08.127Z,40.03
2023-01-03T12:37:20.030Z,35.63
2023-01-03T12:42:37.422Z,35.92
2023-01-03T12:48:15.357Z,28.90
2023-01-03T12:53:24.457Z,31.27
2023-01-03T12:58:45.303Z,26.05
2023-01-03T13:04:00.356Z,31.67
2023-01-03T13:09:18.375Z,27.33
2023-01-03T13:14:28.412Z,26.05
2023-01-03T13:19:39.611Z,32.47
2023-01-03T13:24:54.637Z,29.80
2023-01-03T13:30:00.727Z,31.15
2023-01-03T13:35:05.849Z,37.97
2023-01-03T13:40:59.624Z,32.75
2023-01-03T13:46:02.248Z,25.77
2023-01-03T13:51:15.321Z,25.50
2023-01-03T13:56:25.577Z,23.20
2023-01-03T14:01:45.584Z,22.60
2023-01-03T14:07:30.143Z,19.10
2023-01-03T14:12:55.146Z,26.60
2023-01-03T14:18:17.394Z,21.58
2023-01-03T14:28:54.428Z,24.42
2023-01-03T14:34:04.580Z,22.60
2023-01-03T14:44:36.604Z,20.40
2023-01-03T14:49:45.971Z,22.42
2023-01-03T14:54:58.525Z,23.55
2023-01-03T15:00:13.582Z,22.05
2023-01-03T15:05:35.018Z,22.35
2023-01-03T15:10:53.503Z,24.52
2023-01-03T15:16:02.739Z,21.92
2023-01-03T15:21:23.526Z,24.45
2023-01-03T15:26:38.368Z,17.27
2023-01-03T15:31:50.984Z,19.13
2023-01-03T15:37:12.792Z,18.95
2023-01-03T15:42:46.784Z,21.13
2023-01-03T15:48:00.757Z,15.98
2023-01-03T15:53:04.561Z,20.38
2023-01-03T15:58:12.374Z,21.52
2023-01-03T16:03:19.446Z,18.42
2023-01-03T16:08:36.685Z,17.88
2023-01-03T16:13:45.829Z,18.73
2023-01-03T16:18:53.276Z,16.98
2023-01-03T16:23:57.981Z,21.30
2023-01-03T16:29:04.599Z,31.55
2023-01-03T16:34:21.368Z,23.55
2023-01-03T16:39:29.177Z,20.30
2023-01-03T16:44:37.306Z,17.23
2023-01-03T16:49:46.065Z,16.10
2023-01-03T16:54:53.095Z,17.42
2023-01-03T17:00:00.089Z,20.37
2023-01-03T17:05:04.099Z,18.60
2023-01-03T17:10:29.887Z,19.30
2023-01-03T17:15:35.832Z,16.60
2023-01-03T17:20:40.613Z,21.27
2023-01-03T17:25:45.109Z,18.23
2023-01-03T17:30:51.838Z,16.73
2023-01-03T17:35:58.967Z,18.10
2023-01-03T17:41:04.271Z,22.92
2023-01-03T17:46:38.578Z,19.65
2023-01-03T17:51:42.524Z,15.80
2023-01-03T17:56:48.003Z,20.42
2023-01-03T18:01:58.218Z,16.52
2023-01-03T18:07:02.206Z,16.98
2023-01-03T18:12:06.154Z,16.77
2023-01-03T18:17:36.316Z,17.93
2023-01-03T18:22:41.384Z,16.97
2023-01-03T18:28:02.553Z,21.50
2023-01-03T18:33:06.391Z,19.55
2023-01-03T18:38:29.884Z,21.58
2023-01-03T18:43:35.068Z,14.55
2023-01-03T18:48:39.007Z,18.47
2023-01-03T18:53:49.233Z,17.63
2023-01-03T18:59:01.572Z,15.88
2023-01-03T19:04:07.404Z,15.50
2023-01-03T19:09:19.933Z,15.77
2023-01-03T19:14:23.725Z,17.53
2023-01-03T19:19:28.471Z,16.90
2023-01-03T19:24:39.703Z,13.30
2023-01-03T19:29:47.657Z,11.93
2023-01-03T19:34:51.797Z,16.00
2023-01-03T19:39:57.109Z,12.80
2023-01-03T19:45:18.625Z,12.43
2023-01-03T19:50:31.412Z,12.53
2023-01-03T19:55:40.670Z,11.33
2023-01-03T20:00:51.066Z,13.60
2023-01-03T20:05:55.704Z,10.15
2023-01-03T20:11:02.163Z,7.93
2023-01-03T20:16:08.081Z,8.30
2023-01-03T20:21:24.573Z,10.23
2023-01-03T20:26:34.282Z,8.47
2023-01-03T20:31:39.439Z,7.00
2023-01-03T20:36:52.130Z,8.97
2023-01-03T20:42:01.510Z,8.00
2023-01-03T20:47:11.384Z,6.80
2023-01-03T20:52:17.724Z,6.95
2023-01-03T20:57:26.910Z,7.77
2023-01-03T21:02:33.405Z,6.80
2023-01-03T21:07:56.040Z,7.43
2023-01-03T21:13:05.664Z,6.90
2023-01-03T21:18:12.077Z,6.63
2023-01-03T21:23:23.227Z,5.90
2023-01-03T21:29:09.503Z,6.13
2023-01-03T21:34:18.871Z,5.50
2023-01-03T21:39:25.228Z,5.27
2023-01-03T21:44:29.073Z,8.17
2023-01-03T21:49:35.007Z,5.60
2023-01-03T21:54:38.952Z,5.87
2023-01-03T21:59:44.339Z,5.50
2023-01-03T22:04:49.211Z,6.27
2023-01-03T22:10:13.248Z,3.97
2023-01-03T22:15:23.475Z,7.43
2023-01-03T22:20:33.543Z,5.77
2023-01-03T22:25:42.314Z,6.97
2023-01-03T22:30:46.033Z,5.30
2023-01-03T22:35:50.654Z,5.03
2023-01-03T22:40:54.341Z,6.77
2023-01-03T22:45:59.547Z,5.53
2023-01-03T22:51:06.768Z,5.57
2023-01-03T22:56:17.478Z,5.83
2023-01-03T23:01:29.763Z,5.10
2023-01-03T23:06:37.232Z,3.87
2023-01-03T23:12:00.629Z,6.73
2023-01-03T23:17:23.719Z,6.23
2023-01-03T23:22:28.687Z,6.23
2023-01-03T23:27:35.726Z,4.33
2023-01-03T23:32:39.398Z,5.40
2023-01-03T23:37:44.487Z,6.30
2023-01-03T23:42:49.504Z,4.60
2023-01-03T23:47:54.188Z,4.07
2023-01-03T23:53:00.114Z,5.80
2023-01-03T23:58:03.781Z,5.27
